Time;durP1;ratioP1;P1;durP2;ratioP2;P2;SDS_P1;SDS_P2;PMS_P1;PMS_P2;Temp;Humidity;BMP_temperature;BMP_pressure;BME280_temperature;BME280_humidity;BME280_pressure;Samples;Min_cycle;Max_cycle;Signal;HPM_P1;HPM_P2
2021/05/26 00:01:24;;;;;;;;;;;8.30;99.90;;;;;;5085574;28;19908;-82
2021/05/26 00:03:51;;;;;;;;;;;8.30;99.90;;;;;;5079916;28;19915;-81
2021/05/26 00:06:17;;;;;;;;;;;8.30;99.90;;;;;;5072828;28;19908;-82
2021/05/26 00:08:42;;;;;;;;;;;8.20;99.90;;;;;;5061204;28;19916;-82
2021/05/26 00:11:09;;;;;;;;;;;8.20;99.90;;;;;;5053187;28;19908;-81
2021/05/26 00:13:35;;;;;;;;;;;8.20;99.90;;;;;;5059757;28;20264;-82
2021/05/26 00:16:01;;;;;;;;;;;8.20;99.90;;;;;;5074215;28;19915;-81
2021/05/26 00:18:27;;;;;;;;;;;8.10;99.90;;;;;;5070342;28;20408;-82
2021/05/26 00:20:53;;;;;;;;;;;8.00;99.90;;;;;;5070565;28;20003;-82
2021/05/26 00:23:20;;;;;;;;;;;8.00;99.90;;;;;;5075326;28;19904;-82
2021/05/26 00:25:45;;;;;;;;;;;8.00;99.90;;;;;;5079484;28;19937;-82
2021/05/26 00:28:11;;;;;;;;;;;8.00;99.90;;;;;;5090296;28;20383;-82
2021/05/26 00:30:44;;;;;;;;;;;8.00;99.90;;;;;;5092422;28;19915;-82
2021/05/26 00:33:10;;;;;;;;;;;8.00;99.90;;;;;;5082255;28;19915;-82
2021/05/26 00:35:36;;;;;;;;;;;7.90;99.90;;;;;;5072581;28;19904;-83
2021/05/26 00:38:02;;;;;;;;;;;7.90;99.90;;;;;;5077208;28;19936;-83
2021/05/26 00:40:28;;;;;;;;;;;7.80;99.90;;;;;;5073952;28;19912;-83
2021/05/26 00:42:54;;;;;;;;;;;7.90;99.90;;;;;;5085825;28;19909;-83
2021/05/26 00:45:19;;;;;;;;;;;7.90;99.90;;;;;;5072850;28;20318;-83
2021/05/26 00:47:46;;;;;;;;;;;7.70;99.90;;;;;;5071837;28;19978;-85
2021/05/26 00:50:13;;;;;;;;;;;7.80;99.90;;;;;;5078083;28;19962;-83
2021/05/26 00:52:39;;;;;;;;;;;7.80;99.90;;;;;;5087258;28;19905;-83
2021/05/26 00:55:05;;;;;;;;;;;7.70;99.90;;;;;;5080709;28;19987;-82
2021/05/26 00:57:31;;;;;;;;;;;7.70;99.90;;;;;;5072451;28;19944;-82
2021/05/26 00:59:57;;;;;;;;;;;7.70;99.90;;;;;;5071936;28;20341;-83
2021/05/26 01:02:22;;;;;;;;;;;7.70;99.90;;;;;;5074776;28;19982;-84
2021/05/26 01:04:48;;;;;;;;;;;7.80;99.90;;;;;;5071715;28;20425;-84
2021/05/26 01:07:14;;;;;;;;;;;7.80;99.90;;;;;;5091571;28;19926;-82
2021/05/26 01:09:39;;;;;;;;;;;7.80;99.90;;;;;;5091818;28;19994;-81
2021/05/26 01:12:05;;;;;;;;;;;7.80;99.90;;;;;;5092118;28;19911;-81
2021/05/26 01:14:31;;;;;;;;;;;7.80;99.90;;;;;;5081632;28;19908;-81
2021/05/26 01:16:57;;;;;;;;;;;7.80;99.90;;;;;;5091735;28;19931;-84
2021/05/26 01:19:22;;;;;;;;;;;7.70;99.90;;;;;;5075792;28;19917;-83
2021/05/26 01:21:49;;;;;;;;;;;7.60;99.90;;;;;;5071514;28;20610;-83
2021/05/26 01:24:14;;;;;;;;;;;7.50;99.90;;;;;;5071114;28;20285;-84
2021/05/26 01:26:40;;;;;;;;;;;7.40;99.90;;;;;;5086091;28;19922;-83
2021/05/26 01:29:05;;;;;;;;;;;7.50;99.90;;;;;;5091352;28;19912;-83
2021/05/26 01:31:31;;;;;;;;;;;7.40;99.90;;;;;;5091867;28;19947;-83
2021/05/26 01:33:57;;;;;;;;;;;7.40;99.90;;;;;;5082038;28;20359;-83
2021/05/26 01:36:23;;;;;;;;;;;7.30;99.90;;;;;;5069750;28;19918;-83
2021/05/26 01:38:48;;;;;;;;;;;7.30;99.90;;;;;;5074785;28;19904;-84
2021/05/26 01:41:14;;;;;;;;;;;7.40;99.90;;;;;;5068987;28;20006;-83
2021/05/26 01:43:39;;;;;;;;;;;7.40;99.90;;;;;;5076547;28;19908;-83
2021/05/26 01:46:05;;;;;;;;;;;7.50;99.90;;;;;;5059895;28;19912;-83
2021/05/26 01:48:31;;;;;;;;;;;7.50;99.90;;;;;;5070587;28;19913;-84
2021/05/26 01:50:56;;;;;;;;;;;7.60;99.90;;;;;;5087210;28;19960;-84
2021/05/26 01:53:22;;;;;;;;;;;7.70;99.90;;;;;;5091337;28;20381;-85
2021/05/26 01:55:47;;;;;;;;;;;7.70;99.90;;;;;;5079611;28;19934;-84
2021/05/26 01:58:14;;;;;;;;;;;7.80;99.90;;;;;;5067189;28;19947;-85
2021/05/26 02:00:41;;;;;;;;;;;7.70;99.90;;;;;;5085524;28;19931;-85
2021/05/26 02:03:06;;;;;;;;;;;7.70;99.90;;;;;;5090973;28;20021;-84
2021/05/26 02:05:32;;;;;;;;;;;7.60;99.90;;;;;;5080782;28;19976;-84
2021/05/26 02:07:57;;;;;;;;;;;7.50;99.90;;;;;;5069464;28;19967;-85
2021/05/26 02:13:07;;;;;;;;;;;7.20;99.90;;;;;;5072057;28;19982;-85
2021/05/26 02:15:33;;;;;;;;;;;7.20;99.90;;;;;;5069703;28;19913;-84
2021/05/26 02:17:58;;;;;;;;;;;7.20;99.90;;;;;;5069934;28;19956;-83
2021/05/26 02:20:24;;;;;;;;;;;7.00;99.90;;;;;;5071981;28;20351;-84
2021/05/26 02:22:50;;;;;;;;;;;6.90;99.90;;;;;;5079359;28;20372;-84
2021/05/26 02:25:15;;;;;;;;;;;6.80;99.90;;;;;;5070748;28;19912;-84
2021/05/26 02:27:41;;;;;;;;;;;6.80;99.90;;;;;;5050469;28;20023;-84
2021/05/26 02:30:07;;;;;;;;;;;6.80;99.90;;;;;;5077171;28;19912;-84
2021/05/26 02:32:32;;;;;;;;;;;6.80;99.90;;;;;;5069952;28;19916;-83
2021/05/26 02:34:58;;;;;;;;;;;6.80;99.90;;;;;;5066797;28;20007;-83
2021/05/26 02:37:23;;;;;;;;;;;6.80;99.90;;;;;;5057691;28;19930;-83
2021/05/26 02:39:49;;;;;;;;;;;6.70;99.90;;;;;;5082372;28;20328;-83
2021/05/26 02:42:15;;;;;;;;;;;6.70;99.90;;;;;;5070568;28;20279;-83
2021/05/26 02:44:40;;;;;;;;;;;6.70;99.90;;;;;;5072374;28;19931;-83
2021/05/26 02:47:06;;;;;;;;;;;6.60;99.90;;;;;;5071682;28;19908;-83
2021/05/26 02:49:31;;;;;;;;;;;6.70;99.90;;;;;;5071039;28;19954;-83
2021/05/26 02:51:57;;;;;;;;;;;6.80;99.90;;;;;;5075768;28;20334;-83
2021/05/26 02:54:23;;;;;;;;;;;6.70;99.90;;;;;;5079374;28;19960;-83
2021/05/26 02:56:48;;;;;;;;;;;6.60;99.90;;;;;;5072833;28;19909;-84
2021/05/26 02:59:14;;;;;;;;;;;6.70;99.90;;;;;;5075644;28;19920;-84
2021/05/26 03:01:40;;;;;;;;;;;6.70;99.90;;;;;;5072250;28;20380;-84
2021/05/26 03:04:05;;;;;;;;;;;6.70;99.90;;;;;;5090011;28;19911;-84
2021/05/26 03:06:31;;;;;;;;;;;6.80;99.90;;;;;;5081486;28;19904;-83
2021/05/26 03:08:58;;;;;;;;;;;6.70;99.90;;;;;;5073004;28;19912;-84
2021/05/26 03:11:24;;;;;;;;;;;6.70;99.90;;;;;;5079846;28;19920;-83
2021/05/26 03:13:50;;;;;;;;;;;6.70;99.90;;;;;;5082336;28;19909;-84
2021/05/26 03:16:16;;;;;;;;;;;6.60;99.90;;;;;;5076323;28;19908;-84
2021/05/26 03:18:43;;;;;;;;;;;6.60;99.90;;;;;;5072049;28;19946;-84
2021/05/26 03:21:09;;;;;;;;;;;6.70;99.90;;;;;;5075062;28;19915;-84
2021/05/26 03:23:34;;;;;;;;;;;6.70;99.90;;;;;;5069443;28;19905;-84
2021/05/26 03:26:00;;;;;;;;;;;6.80;99.90;;;;;;5077207;28;19916;-84
2021/05/26 03:28:25;;;;;;;;;;;6.70;99.90;;;;;;5091203;28;19950;-84
2021/05/26 03:30:51;;;;;;;;;;;6.80;99.90;;;;;;5082123;28;19912;-84
2021/05/26 03:33:18;;;;;;;;;;;6.70;99.90;;;;;;5069113;28;19912;-84
2021/05/26 03:35:44;;;;;;;;;;;6.80;99.90;;;;;;5073008;28;19920;-84
2021/05/26 03:38:10;;;;;;;;;;;6.70;99.90;;;;;;5073849;28;20390;-84
2021/05/26 03:40:37;;;;;;;;;;;6.70;99.90;;;;;;5085919;28;20592;-84
2021/05/26 03:43:02;;;;;;;;;;;6.70;99.90;;;;;;5069066;28;20069;-84
2021/05/26 03:45:28;;;;;;;;;;;6.70;99.90;;;;;;5075291;28;20427;-84
2021/05/26 03:47:56;;;;;;;;;;;6.60;99.90;;;;;;5078557;28;19912;-84
2021/05/26 03:50:22;;;;;;;;;;;6.70;99.90;;;;;;5079673;28;19970;-83
2021/05/26 03:52:47;;;;;;;;;;;6.70;99.90;;;;;;5076126;28;20646;-83
2021/05/26 03:55:15;;;;;;;;;;;6.90;99.90;;;;;;5073662;28;19915;-83
2021/05/26 03:57:40;;;;;;;;;;;6.70;99.90;;;;;;5073072;28;19912;-83
2021/05/26 04:00:07;;;;;;;;;;;6.70;99.90;;;;;;5074019;28;19910;-83
2021/05/26 04:02:32;;;;;;;;;;;6.60;99.90;;;;;;5087218;28;20419;-84
2021/05/26 04:04:58;;;;;;;;;;;6.60;99.90;;;;;;5072830;28;19916;-83
2021/05/26 04:07:24;;;;;;;;;;;6.70;99.90;;;;;;5092819;28;19904;-84
2021/05/26 04:09:49;;;;;;;;;;;6.70;99.90;;;;;;5069469;28;19911;-84
2021/05/26 04:12:15;;;;;;;;;;;6.70;99.90;;;;;;5063582;28;19913;-84
2021/05/26 04:14:41;;;;;;;;;;;6.70;99.90;;;;;;5072478;28;19915;-84
2021/05/26 04:17:06;;;;;;;;;;;6.70;99.90;;;;;;5072633;28;20368;-84
2021/05/26 04:19:32;;;;;;;;;;;6.80;99.90;;;;;;5076754;28;20347;-84
2021/05/26 04:21:57;;;;;;;;;;;6.70;99.90;;;;;;5081175;28;20440;-84
2021/05/26 04:24:23;;;;;;;;;;;6.50;99.90;;;;;;5077049;28;20369;-84
2021/05/26 04:26:49;;;;;;;;;;;6.50;99.90;;;;;;5072617;28;19909;-83
2021/05/26 04:29:15;;;;;;;;;;;6.30;99.90;;;;;;5074920;28;19922;-84
2021/05/26 04:31:41;;;;;;;;;;;6.20;99.90;;;;;;5071900;28;19916;-84
2021/05/26 04:34:07;;;;;;;;;;;6.20;99.90;;;;;;5073468;28;20019;-84
2021/05/26 04:36:32;;;;;;;;;;;6.20;99.90;;;;;;5080067;28;19919;-84
2021/05/26 04:38:58;;;;;;;;;;;6.20;99.90;;;;;;5074365;28;20296;-83
2021/05/26 04:41:24;;;;;;;;;;;6.30;99.90;;;;;;5071678;28;19995;-84
2021/05/26 04:43:49;;;;;;;;;;;6.50;99.90;;;;;;5077139;28;19916;-84
2021/05/26 04:46:15;;;;;;;;;;;6.50;99.90;;;;;;5086877;28;20382;-84
2021/05/26 04:48:41;;;;;;;;;;;6.90;99.90;;;;;;5073623;28;19916;-84
2021/05/26 04:51:06;;;;;;;;;;;7.10;99.90;;;;;;5087691;28;19923;-84
2021/05/26 04:53:32;;;;;;;;;;;7.10;99.90;;;;;;5071830;28;19982;-85
2021/05/26 04:55:58;;;;;;;;;;;7.10;99.90;;;;;;5078831;28;19904;-83
2021/05/26 04:58:24;;;;;;;;;;;7.00;99.90;;;;;;5079331;28;19904;-84
2021/05/26 05:00:49;;;;;;;;;;;7.10;99.90;;;;;;5075213;28;19916;-84
2021/05/26 05:03:15;;;;;;;;;;;7.40;99.90;;;;;;5087994;28;19974;-84
2021/05/26 05:05:40;;;;;;;;;;;7.60;99.90;;;;;;5085387;28;20284;-84
2021/05/26 05:08:07;;;;;;;;;;;7.60;99.90;;;;;;5084464;28;20002;-84
2021/05/26 05:10:33;;;;;;;;;;;7.50;99.90;;;;;;5087991;28;19916;-84
2021/05/26 05:12:59;;;;;;;;;;;7.80;99.90;;;;;;5073279;28;19916;-84
2021/05/26 05:15:24;;;;;;;;;;;8.50;99.90;;;;;;5091998;28;20380;-84
2021/05/26 05:17:50;;;;;;;;;;;8.80;99.90;;;;;;5081019;28;19930;-85
2021/05/26 05:20:19;;;;;;;;;;;9.50;99.90;;;;;;5086527;28;20070;-84
2021/05/26 05:22:45;;;;;;;;;;;9.30;99.90;;;;;;5072486;28;19904;-84
2021/05/26 05:25:10;;;;;;;;;;;8.80;99.90;;;;;;5071902;28;19911;-83
2021/05/26 05:27:36;;;;;;;;;;;8.60;99.90;;;;;;5076117;28;20031;-83
2021/05/26 05:30:03;;;;;;;;;;;9.00;99.90;;;;;;5082509;28;19999;-83
2021/05/26 05:32:29;;;;;;;;;;;9.20;99.90;;;;;;5079483;28;19909;-84
2021/05/26 05:34:54;;;;;;;;;;;9.40;99.90;;;;;;5070478;28;19915;-84
2021/05/26 05:37:20;;;;;;;;;;;10.50;99.90;;;;;;5070299;28;19908;-84
2021/05/26 05:39:45;;;;;;;;;;;10.80;99.90;;;;;;5072864;28;19935;-85
2021/05/26 05:42:11;;;;;;;;;;;11.00;99.90;;;;;;5084635;28;20390;-85
2021/05/26 05:44:37;;;;;;;;;;;12.50;99.90;;;;;;5087339;28;19915;-84
2021/05/26 05:47:02;;;;;;;;;;;12.90;99.90;;;;;;5089191;28;20731;-84
2021/05/26 05:49:28;;;;;;;;;;;13.30;99.90;;;;;;5091541;28;19919;-85
2021/05/26 05:51:53;;;;;;;;;;;12.30;99.90;;;;;;5086353;28;19915;-84
2021/05/26 05:54:19;;;;;;;;;;;12.90;99.90;;;;;;5072796;28;19916;-84
2021/05/26 05:56:45;;;;;;;;;;;14.40;99.90;;;;;;5071102;28;19932;-85
2021/05/26 05:59:10;;;;;;;;;;;14.40;99.90;;;;;;5067474;28;19919;-83
2021/05/26 06:01:36;;;;;;;;;;;9.90;99.90;;;;;;5066476;28;20288;-83
2021/05/26 06:04:02;;;;;;;;;;;9.30;99.90;;;;;;5062452;28;19913;-83
2021/05/26 06:06:32;;;;;;;;;;;9.80;99.90;;;;;;5067163;28;19912;-83
2021/05/26 06:08:57;;;;;;;;;;;12.30;99.90;;;;;;5057401;28;19908;-84
2021/05/26 06:11:23;;;;;;;;;;;13.40;99.90;;;;;;5071692;28;19927;-85
2021/05/26 06:13:49;;;;;;;;;;;15.90;99.90;;;;;;5063554;28;19944;-84
2021/05/26 06:16:15;;;;;;;;;;;16.80;99.90;;;;;;5059919;28;19908;-83
2021/05/26 06:18:41;;;;;;;;;;;16.50;99.90;;;;;;5054756;28;19924;-84
2021/05/26 06:21:07;;;;;;;;;;;16.20;99.90;;;;;;5067264;28;19917;-84
2021/05/26 06:23:34;;;;;;;;;;;17.40;99.90;;;;;;5067572;28;20359;-84
2021/05/26 06:26:00;;;;;;;;;;;17.60;99.90;;;;;;5063488;28;19961;-84
2021/05/26 06:28:25;;;;;;;;;;;17.40;99.90;;;;;;5065620;28;19908;-84
2021/05/26 06:30:52;;;;;;;;;;;17.20;99.90;;;;;;5060248;28;20485;-84
2021/05/26 06:33:18;;;;;;;;;;;18.80;99.90;;;;;;5067516;28;20000;-85
2021/05/26 06:35:44;;;;;;;;;;;18.20;99.90;;;;;;5057252;28;19958;-84
2021/05/26 06:38:10;;;;;;;;;;;16.70;99.90;;;;;;5055927;28;19904;-85
2021/05/26 06:40:35;;;;;;;;;;;19.30;99.90;;;;;;5067628;28;19917;-85
2021/05/26 06:43:01;;;;;;;;;;;19.70;99.90;;;;;;5081839;28;19913;-85
2021/05/26 06:45:27;;;;;;;;;;;18.00;99.90;;;;;;5072629;28;20010;-86
2021/05/26 06:47:52;;;;;;;;;;;16.80;99.90;;;;;;5070098;28;19909;-86
2021/05/26 06:50:18;;;;;;;;;;;15.70;99.90;;;;;;5069186;28;19942;-86
2021/05/26 06:52:44;;;;;;;;;;;16.70;99.90;;;;;;5068401;28;19949;-87
2021/05/26 06:55:09;;;;;;;;;;;16.50;99.90;;;;;;5068766;28;19904;-87
2021/05/26 06:57:35;;;;;;;;;;;16.70;99.90;;;;;;5069056;28;19912;-87
2021/05/26 07:00:01;;;;;;;;;;;15.90;99.90;;;;;;5069346;28;19904;-87
2021/05/26 07:02:26;;;;;;;;;;;18.30;99.90;;;;;;5068370;28;19938;-87
2021/05/26 07:04:52;;;;;;;;;;;18.60;99.90;;;;;;5069107;28;19919;-87
2021/05/26 07:07:18;;;;;;;;;;;20.70;99.90;;;;;;5069604;28;19908;-87
2021/05/26 07:09:43;;;;;;;;;;;21.10;99.90;;;;;;5069626;28;19908;-87
2021/05/26 07:12:09;;;;;;;;;;;19.50;99.90;;;;;;5069508;28;20317;-87
2021/05/26 07:14:35;;;;;;;;;;;19.80;99.90;;;;;;5069719;28;19946;-87
2021/05/26 07:17:00;;;;;;;;;;;21.40;99.90;;;;;;5069281;28;19905;-87
2021/05/26 07:19:26;;;;;;;;;;;24.70;99.90;;;;;;5069151;28;20292;-87
2021/05/26 07:21:52;;;;;;;;;;;21.40;99.00;;;;;;5074306;28;20648;-87
2021/05/26 07:24:17;;;;;;;;;;;19.20;99.90;;;;;;5088155;28;19908;-87
2021/05/26 07:26:43;;;;;;;;;;;19.00;99.90;;;;;;5089940;28;19973;-87
2021/05/26 07:29:09;;;;;;;;;;;18.60;99.90;;;;;;5089264;28;20363;-87
2021/05/26 07:31:34;;;;;;;;;;;17.70;99.90;;;;;;5088279;28;19919;-86
2021/05/26 07:34:00;;;;;;;;;;;17.10;99.90;;;;;;5080656;28;19915;-87
2021/05/26 07:36:26;;;;;;;;;;;16.30;99.90;;;;;;5067586;28;20696;-87
2021/05/26 07:38:52;;;;;;;;;;;15.90;99.90;;;;;;5067976;28;19911;-86
2021/05/26 07:41:17;;;;;;;;;;;15.30;99.90;;;;;;5069000;28;19954;-87
2021/05/26 07:43:43;;;;;;;;;;;15.00;99.90;;;;;;5069305;28;20392;-87
2021/05/26 07:46:09;;;;;;;;;;;14.80;99.90;;;;;;5068897;28;19955;-87
2021/05/26 07:48:35;;;;;;;;;;;14.60;99.90;;;;;;5069272;28;20465;-86
2021/05/26 07:51:02;;;;;;;;;;;14.50;99.90;;;;;;5067725;28;19915;-87
2021/05/26 07:53:28;;;;;;;;;;;21.10;99.90;;;;;;5067962;28;19908;-88
2021/05/26 07:55:53;;;;;;;;;;;25.10;99.70;;;;;;5069541;28;19911;-88
2021/05/26 07:58:19;;;;;;;;;;;26.30;95.60;;;;;;5068938;28;20390;-88
2021/05/26 08:00:45;;;;;;;;;;;26.90;92.60;;;;;;5068137;28;20357;-86
2021/05/26 08:03:10;;;;;;;;;;;27.80;91.00;;;;;;5069371;28;19912;-86
2021/05/26 08:05:36;;;;;;;;;;;27.00;90.70;;;;;;5067760;28;20325;-86
2021/05/26 08:08:01;;;;;;;;;;;26.30;92.00;;;;;;5067750;28;19912;-85
2021/05/26 08:10:27;;;;;;;;;;;27.30;89.60;;;;;;5067938;28;19919;-85
2021/05/26 08:12:53;;;;;;;;;;;26.30;89.50;;;;;;5071000;28;19912;-85
2021/05/26 08:15:19;;;;;;;;;;;23.40;91.10;;;;;;5091100;28;19958;-85
2021/05/26 08:17:44;;;;;;;;;;;22.80;95.20;;;;;;5091593;28;20326;-85
2021/05/26 08:20:11;;;;;;;;;;;21.50;93.00;;;;;;5091993;28;19904;-85
2021/05/26 08:22:37;;;;;;;;;;;19.00;98.30;;;;;;5092861;28;20261;-86
2021/05/26 08:25:03;;;;;;;;;;;17.90;99.00;;;;;;5075332;28;19927;-87
2021/05/26 08:27:29;;;;;;;;;;;16.70;99.90;;;;;;5072584;28;20008;-86
2021/05/26 08:29:55;;;;;;;;;;;16.10;99.90;;;;;;5072845;28;20383;-86
2021/05/26 08:32:21;;;;;;;;;;;15.90;99.90;;;;;;5071059;28;19905;-86
2021/05/26 08:34:49;;;;;;;;;;;16.40;99.90;;;;;;5071027;28;19930;-86
2021/05/26 08:37:15;;;;;;;;;;;16.20;99.90;;;;;;5072465;28;19908;-86
2021/05/26 08:39:41;;;;;;;;;;;22.20;97.20;;;;;;5071968;28;19935;-87
2021/05/26 08:42:06;;;;;;;;;;;28.00;90.50;;;;;;5070953;28;19943;-86
2021/05/26 08:44:32;;;;;;;;;;;28.00;89.10;;;;;;5072056;28;19908;-87
2021/05/26 08:46:58;;;;;;;;;;;25.40;92.40;;;;;;5072248;28;20376;-88
2021/05/26 08:49:23;;;;;;;;;;;21.50;93.40;;;;;;5070358;28;19908;-87
2021/05/26 08:51:49;;;;;;;;;;;21.80;94.90;;;;;;5071749;28;19955;-87
2021/05/26 08:54:18;;;;;;;;;;;24.80;90.80;;;;;;5071805;28;19931;-88
2021/05/26 08:56:44;;;;;;;;;;;27.20;83.70;;;;;;5071849;28;19974;-86
2021/05/26 08:59:13;;;;;;;;;;;29.70;80.00;;;;;;5070570;28;19910;-86
2021/05/26 09:01:44;;;;;;;;;;;30.00;73.60;;;;;;5071671;28;19910;-86
2021/05/26 09:04:29;;;;;;;;;;;27.30;77.20;;;;;;5071365;28;19954;-85
2021/05/26 09:07:08;;;;;;;;;;;20.20;98.00;;;;;;5071431;28;19923;-86
2021/05/26 09:09:44;;;;;;;;;;;18.30;96.50;;;;;;5065539;28;20046;-87
2021/05/26 09:12:11;;;;;;;;;;;18.80;98.70;;;;;;5070439;28;20355;-87
2021/05/26 09:14:36;;;;;;;;;;;27.50;84.20;;;;;;5071600;28;19905;-87
2021/05/26 09:17:11;;;;;;;;;;;30.60;70.80;;;;;;5069721;28;20328;-87
2021/05/26 09:19:37;;;;;;;;;;;31.00;62.90;;;;;;5071593;28;20504;-86
2021/05/26 09:22:09;;;;;;;;;;;32.20;62.80;;;;;;5071427;28;19909;-86
2021/05/26 09:24:35;;;;;;;;;;;33.60;58.00;;;;;;5070751;28;20705;-86
2021/05/26 09:27:05;;;;;;;;;;;34.30;52.70;;;;;;5071553;28;19904;-86
2021/05/26 09:29:35;;;;;;;;;;;32.70;53.80;;;;;;5069969;28;19991;-86
2021/05/26 09:32:15;;;;;;;;;;;32.60;53.90;;;;;;5071386;28;20394;-86
2021/05/26 09:34:42;;;;;;;;;;;28.70;56.70;;;;;;5070070;28;19912;-85
2021/05/26 09:37:11;;;;;;;;;;;27.00;66.40;;;;;;5071183;28;19909;-86
2021/05/26 09:39:47;;;;;;;;;;;24.40;73.30;;;;;;5071543;28;19916;-86
2021/05/26 09:42:26;;;;;;;;;;;21.90;74.00;;;;;;5069931;28;19908;-86
2021/05/26 09:45:12;;;;;;;;;;;21.70;78.20;;;;;;5070164;28;19932;-85
2021/05/26 09:47:51;;;;;;;;;;;20.20;86.90;;;;;;5069938;28;20720;-85
2021/05/26 09:50:27;;;;;;;;;;;19.90;83.90;;;;;;5071048;28;19923;-87
2021/05/26 09:52:57;;;;;;;;;;;19.70;82.60;;;;;;5070908;28;20351;-87
2021/05/26 09:55:24;;;;;;;;;;;19.50;85.40;;;;;;5071137;28;19908;-88
2021/05/26 09:57:50;;;;;;;;;;;19.50;90.00;;;;;;5070883;28;20383;-87
2021/05/26 10:00:17;;;;;;;;;;;19.60;90.60;;;;;;5070728;28;19912;-86
2021/05/26 10:02:42;;;;;;;;;;;19.80;89.90;;;;;;5070551;28;19953;-86
2021/05/26 10:05:08;;;;;;;;;;;20.20;89.60;;;;;;5069080;28;20334;-86
2021/05/26 10:07:34;;;;;;;;;;;19.50;90.80;;;;;;5070229;28;19919;-86
2021/05/26 10:10:01;;;;;;;;;;;19.60;90.50;;;;;;5070415;28;19909;-86
2021/05/26 10:12:27;;;;;;;;;;;20.70;85.20;;;;;;5070183;28;20560;-86
2021/05/26 10:14:53;;;;;;;;;;;19.90;87.40;;;;;;5070388;28;19920;-86
2021/05/26 10:17:23;;;;;;;;;;;20.40;88.20;;;;;;5068460;28;19920;-87
2021/05/26 10:19:49;;;;;;;;;;;21.30;89.00;;;;;;5068799;28;19915;-86
2021/05/26 10:22:15;;;;;;;;;;;22.40;83.10;;;;;;5069866;28;19908;-86
2021/05/26 10:24:46;;;;;;;;;;;22.90;78.60;;;;;;5071070;28;20053;-86
2021/05/26 10:27:30;;;;;;;;;;;23.40;76.10;;;;;;5063846;28;19912;-86
2021/05/26 10:29:59;;;;;;;;;;;23.80;75.50;;;;;;5049496;28;19916;-86
2021/05/26 10:32:28;;;;;;;;;;;21.20;82.20;;;;;;5050736;28;19949;-86
2021/05/26 10:34:54;;;;;;;;;;;21.50;80.30;;;;;;5051735;28;19912;-86
2021/05/26 10:37:27;;;;;;;;;;;22.40;77.00;;;;;;5051795;28;19908;-87
2021/05/26 10:39:53;;;;;;;;;;;21.50;83.10;;;;;;5060962;28;19915;-86
2021/05/26 10:42:25;;;;;;;;;;;21.60;81.90;;;;;;5061610;28;20289;-86
2021/05/26 10:44:58;;;;;;;;;;;23.50;76.80;;;;;;5081136;28;19915;-86
2021/05/26 10:47:36;;;;;;;;;;;23.20;78.40;;;;;;5061545;28;20322;-86
2021/05/26 10:50:02;;;;;;;;;;;23.10;81.90;;;;;;5054107;28;19991;-87
2021/05/26 10:52:28;;;;;;;;;;;22.50;80.40;;;;;;5058815;28;19962;-84
2021/05/26 10:54:54;;;;;;;;;;;23.90;76.80;;;;;;5069582;28;19928;-84
2021/05/26 10:57:20;;;;;;;;;;;25.50;71.30;;;;;;5064140;28;20365;-84
2021/05/26 11:00:05;;;;;;;;;;;26.30;69.70;;;;;;5049754;28;19936;-84
2021/05/26 11:02:32;;;;;;;;;;;28.70;68.20;;;;;;5068147;28;19939;-84
2021/05/26 11:05:18;;;;;;;;;;;30.20;68.00;;;;;;5066966;28;19966;-84
2021/05/26 11:07:43;;;;;;;;;;;27.90;70.30;;;;;;5050270;28;19913;-84
2021/05/26 11:10:09;;;;;;;;;;;25.70;69.70;;;;;;5050149;28;20003;-84
2021/05/26 11:12:54;;;;;;;;;;;25.50;69.20;;;;;;5051017;28;19909;-84
2021/05/26 11:15:39;;;;;;;;;;;24.50;69.30;;;;;;5066612;28;19911;-87
2021/05/26 11:18:31;;;;;;;;;;;27.10;67.70;;;;;;5063281;28;19970;-86
2021/05/26 11:20:57;;;;;;;;;;;28.60;63.30;;;;;;5056326;28;19931;-86
2021/05/26 11:23:23;;;;;;;;;;;30.40;60.10;;;;;;5056573;28;20383;-84
2021/05/26 11:25:52;;;;;;;;;;;25.40;64.70;;;;;;5049883;28;19905;-84
2021/05/26 11:28:44;;;;;;;;;;;24.40;67.30;;;;;;5064869;28;19997;-82
2021/05/26 11:31:11;;;;;;;;;;;23.70;67.70;;;;;;5049714;28;19916;-84
2021/05/26 11:33:39;;;;;;;;;;;21.60;77.90;;;;;;5061690;28;19916;-85
2021/05/26 11:36:06;;;;;;;;;;;21.20;75.20;;;;;;5051271;28;20634;-86
2021/05/26 11:38:33;;;;;;;;;;;22.60;75.70;;;;;;5078896;28;20292;-86
2021/05/26 11:41:00;;;;;;;;;;;21.80;78.40;;;;;;5064423;28;19912;-86
2021/05/26 11:43:29;;;;;;;;;;;22.10;76.20;;;;;;5048127;28;19908;-86
2021/05/26 11:46:08;;;;;;;;;;;22.40;74.10;;;;;;5062885;28;20015;-86
2021/05/26 11:48:34;;;;;;;;;;;21.30;77.90;;;;;;5057379;28;19991;-86
2021/05/26 11:51:00;;;;;;;;;;;20.40;77.70;;;;;;5060973;28;19916;-86
2021/05/26 11:53:27;;;;;;;;;;;20.20;79.10;;;;;;5065633;28;19943;-86
2021/05/26 11:55:58;;;;;;;;;;;20.90;79.30;;;;;;5059414;28;19904;-86
2021/05/26 11:58:32;;;;;;;;;;;20.60;80.70;;;;;;5065350;28;20038;-86
2021/05/26 12:01:03;;;;;;;;;;;20.60;80.40;;;;;;5068084;28;19912;-86
2021/05/26 12:03:29;;;;;;;;;;;20.30;81.00;;;;;;5061712;28;19915;-86
2021/05/26 12:05:56;;;;;;;;;;;20.10;80.50;;;;;;5062762;28;20425;-86
2021/05/26 12:08:23;;;;;;;;;;;19.50;81.50;;;;;;5061170;28;20501;-86
2021/05/26 12:10:53;;;;;;;;;;;20.20;81.60;;;;;;5061371;28;19908;-85
2021/05/26 12:13:22;;;;;;;;;;;19.30;83.70;;;;;;5061574;28;19920;-86
2021/05/26 12:15:48;;;;;;;;;;;19.90;83.90;;;;;;5060790;28;20586;-86
2021/05/26 12:18:14;;;;;;;;;;;19.90;84.70;;;;;;5059127;28;19924;-86
2021/05/26 12:20:50;;;;;;;;;;;19.50;82.70;;;;;;5059137;28;19908;-87
2021/05/26 12:23:29;;;;;;;;;;;19.30;84.80;;;;;;5060305;28;19905;-86
2021/05/26 12:25:55;;;;;;;;;;;19.30;85.80;;;;;;5065974;28;20388;-87
2021/05/26 12:28:21;;;;;;;;;;;19.00;87.20;;;;;;5063390;28;19904;-86
2021/05/26 12:30:48;;;;;;;;;;;18.70;90.00;;;;;;5068306;28;20005;-86
2021/05/26 12:33:13;;;;;;;;;;;18.40;91.20;;;;;;5067226;28;19948;-86
2021/05/26 12:35:39;;;;;;;;;;;18.30;90.80;;;;;;5066959;28;19990;-86
2021/05/26 12:38:21;;;;;;;;;;;17.90;90.90;;;;;;5062930;28;19904;-86
2021/05/26 12:40:47;;;;;;;;;;;17.60;91.70;;;;;;5061280;28;20008;-86
2021/05/26 12:43:24;;;;;;;;;;;17.50;91.20;;;;;;5062004;28;19920;-86
2021/05/26 12:45:50;;;;;;;;;;;18.10;91.50;;;;;;5062917;28;19913;-86
2021/05/26 12:48:16;;;;;;;;;;;18.00;91.10;;;;;;5059156;28;20442;-86
2021/05/26 12:50:46;;;;;;;;;;;18.40;98.60;;;;;;5079153;28;20066;-86
2021/05/26 12:53:13;;;;;;;;;;;18.20;91.20;;;;;;5071451;28;19948;-86
2021/05/26 12:55:42;;;;;;;;;;;18.00;92.50;;;;;;5067223;28;19934;-85
2021/05/26 12:58:09;;;;;;;;;;;18.00;91.10;;;;;;5071191;28;19912;-85
2021/05/26 13:00:39;;;;;;;;;;;17.50;92.90;;;;;;5080828;28;20564;-86
2021/05/26 13:03:06;;;;;;;;;;;17.30;92.70;;;;;;5082263;28;19908;-85
2021/05/26 13:05:33;;;;;;;;;;;18.00;92.80;;;;;;5068143;28;19908;-86
2021/05/26 13:08:15;;;;;;;;;;;17.70;93.20;;;;;;5066223;28;19912;-86
2021/05/26 13:10:51;;;;;;;;;;;18.00;93.00;;;;;;5070182;28;19909;-86
2021/05/26 13:13:19;;;;;;;;;;;18.30;92.60;;;;;;5071491;28;19905;-86
2021/05/26 13:15:45;;;;;;;;;;;18.00;92.10;;;;;;5070373;28;19954;-86
2021/05/26 13:18:11;;;;;;;;;;;17.80;92.60;;;;;;5070872;28;19923;-86
2021/05/26 13:20:38;;;;;;;;;;;18.00;92.70;;;;;;5071515;28;20139;-86
2021/05/26 13:23:05;;;;;;;;;;;18.40;92.40;;;;;;5071276;28;19912;-86
2021/05/26 13:25:32;;;;;;;;;;;18.50;92.40;;;;;;5070078;28;19999;-86
2021/05/26 13:27:58;;;;;;;;;;;18.10;92.50;;;;;;5076729;28;19965;-86
2021/05/26 13:30:25;;;;;;;;;;;18.60;92.90;;;;;;5089361;28;19912;-86
2021/05/26 13:32:52;;;;;;;;;;;17.90;91.90;;;;;;5071242;28;19910;-86
2021/05/26 13:35:18;;;;;;;;;;;17.70;93.50;;;;;;5068185;28;19913;-87
2021/05/26 13:37:43;;;;;;;;;;;18.20;93.20;;;;;;5059077;28;19999;-87
2021/05/26 13:40:10;;;;;;;;;;;18.00;93.00;;;;;;5090068;28;20034;-86
2021/05/26 13:42:36;;;;;;;;;;;18.00;93.40;;;;;;5091109;28;20379;-86
2021/05/26 13:45:03;;;;;;;;;;;17.80;93.40;;;;;;5091382;28;19915;-86
2021/05/26 13:47:28;;;;;;;;;;;17.50;93.70;;;;;;5089056;28;19908;-86
2021/05/26 13:49:54;;;;;;;;;;;17.60;93.50;;;;;;5072600;28;19909;-85
2021/05/26 13:52:20;;;;;;;;;;;17.40;93.70;;;;;;5070601;28;19923;-85
2021/05/26 13:54:45;;;;;;;;;;;17.30;93.10;;;;;;5070648;28;19916;-86
2021/05/26 13:57:11;;;;;;;;;;;17.70;93.80;;;;;;5070952;28;19904;-86
2021/05/26 13:59:36;;;;;;;;;;;18.10;93.60;;;;;;5070728;28;19958;-86
2021/05/26 14:02:02;;;;;;;;;;;17.90;93.40;;;;;;5070734;28;20388;-86
2021/05/26 14:04:28;;;;;;;;;;;18.00;93.40;;;;;;5060700;28;19943;-86
2021/05/26 14:06:53;;;;;;;;;;;18.10;93.80;;;;;;5057813;28;19912;-86
2021/05/26 14:09:19;;;;;;;;;;;17.90;93.90;;;;;;5063791;28;19948;-85
2021/05/26 14:11:45;;;;;;;;;;;17.90;93.60;;;;;;5057402;28;19928;-85
2021/05/26 14:14:11;;;;;;;;;;;18.00;93.30;;;;;;5079988;28;19905;-86
2021/05/26 14:16:36;;;;;;;;;;;17.80;93.80;;;;;;5070865;28;19931;-86
2021/05/26 14:19:03;;;;;;;;;;;18.00;93.70;;;;;;5062438;28;20783;-86
2021/05/26 14:21:28;;;;;;;;;;;17.90;94.10;;;;;;5067996;28;20393;-86
2021/05/26 14:23:54;;;;;;;;;;;17.90;94.40;;;;;;5062198;28;19912;-86